sensor_id;sensor_type;location;lat;lon;timestamp;pressure;altitude;pressure_sealevel;temperature
22269;BMP280;11303;50.772;19.670;2023-12-07T00:00:41;98885.00;;;-4.14
22269;BMP280;11303;50.772;19.670;2023-12-07T00:02:43;98883.50;;;-4.15
22269;BMP280;11303;50.772;19.670;2023-12-07T00:04:45;98888.34;;;-4.14
22269;BMP280;11303;50.772;19.670;2023-12-07T00:06:47;98890.09;;;-4.14
22269;BMP280;11303;50.772;19.670;2023-12-07T00:08:49;98887.56;;;-4.14
22269;BMP280;11303;50.772;19.670;2023-12-07T00:10:50;98880.97;;;-4.15
22269;BMP280;11303;50.772;19.670;2023-12-07T00:12:52;98887.09;;;-4.11
22269;BMP280;11303;50.772;19.670;2023-12-07T00:14:54;98887.31;;;-4.13
22269;BMP280;11303;50.772;19.670;2023-12-07T00:16:56;98885.56;;;-4.12
22269;BMP280;11303;50.772;19.670;2023-12-07T00:18:58;98880.97;;;-4.15
22269;BMP280;11303;50.772;19.670;2023-12-07T00:21:01;98888.56;;;-4.15
22269;BMP280;11303;50.772;19.670;2023-12-07T00:23:03;98884.72;;;-4.18
22269;BMP280;11303;50.772;19.670;2023-12-07T00:25:05;98875.56;;;-4.19
22269;BMP280;11303;50.772;19.670;2023-12-07T00:27:07;98886.50;;;-4.18
22269;BMP280;11303;50.772;19.670;2023-12-07T00:29:08;98888.25;;;-4.19
22269;BMP280;11303;50.772;19.670;2023-12-07T00:31:10;98890.78;;;-4.19
22269;BMP280;11303;50.772;19.670;2023-12-07T00:33:12;98888.25;;;-4.19
22269;BMP280;11303;50.772;19.670;2023-12-07T00:35:14;98882.72;;;-4.16
22269;BMP280;11303;50.772;19.670;2023-12-07T00:37:17;98891.13;;;-4.15
22269;BMP280;11303;50.772;19.670;2023-12-07T00:39:19;98888.13;;;-4.12
22269;BMP280;11303;50.772;19.670;2023-12-07T00:41:21;98889.63;;;-4.11
22269;BMP280;11303;50.772;19.670;2023-12-07T00:43:23;98886.88;;;-4.10
22269;BMP280;11303;50.772;19.670;2023-12-07T00:45:25;98886.34;;;-4.12
22269;BMP280;11303;50.772;19.670;2023-12-07T00:47:27;98899.56;;;-4.10
22269;BMP280;11303;50.772;19.670;2023-12-07T00:49:28;98897.00;;;-4.10
22269;BMP280;11303;50.772;19.670;2023-12-07T00:51:30;98897.25;;;-4.11
22269;BMP280;11303;50.772;19.670;2023-12-07T00:53:32;98897.34;;;-4.06
22269;BMP280;11303;50.772;19.670;2023-12-07T00:55:34;98900.19;;;-4.02
22269;BMP280;11303;50.772;19.670;2023-12-07T00:57:36;98894.34;;;-4.03
22269;BMP280;11303;50.772;19.670;2023-12-07T00:59:38;98892.56;;;-4.02
22269;BMP280;11303;50.772;19.670;2023-12-07T01:01:39;98889.78;;;-4.01
22269;BMP280;11303;50.772;19.670;2023-12-07T01:03:42;98893.66;;;-3.98
22269;BMP280;11303;50.772;19.670;2023-12-07T01:05:44;98892.88;;;-3.99
22269;BMP280;11303;50.772;19.670;2023-12-07T01:07:46;98895.19;;;-3.97
22269;BMP280;11303;50.772;19.670;2023-12-07T01:09:47;98891.44;;;-3.95
22269;BMP280;11303;50.772;19.670;2023-12-07T01:11:50;98895.75;;;-3.95
22269;BMP280;11303;50.772;19.670;2023-12-07T01:13:51;98890.91;;;-3.97
22269;BMP280;11303;50.772;19.670;2023-12-07T01:15:53;98900.56;;;-3.94
22269;BMP280;11303;50.772;19.670;2023-12-07T01:17:55;98891.94;;;-3.93
22269;BMP280;11303;50.772;19.670;2023-12-07T01:19:57;98896.03;;;-3.92
22269;BMP280;11303;50.772;19.670;2023-12-07T01:21:59;98899.34;;;-3.91
22269;BMP280;11303;50.772;19.670;2023-12-07T01:24:00;98897.56;;;-3.91
22269;BMP280;11303;50.772;19.670;2023-12-07T01:26:15;98894.03;;;-3.90
22269;BMP280;11303;50.772;19.670;2023-12-07T01:28:17;98895.03;;;-3.91
22269;BMP280;11303;50.772;19.670;2023-12-07T01:30:19;98895.25;;;-3.92
22269;BMP280;11303;50.772;19.670;2023-12-07T01:32:21;98900.09;;;-3.91
22269;BMP280;11303;50.772;19.670;2023-12-07T01:34:23;98901.41;;;-3.88
22269;BMP280;11303;50.772;19.670;2023-12-07T01:36:25;98899.41;;;-3.86
22269;BMP280;11303;50.772;19.670;2023-12-07T01:38:27;98898.41;;;-3.85
22269;BMP280;11303;50.772;19.670;2023-12-07T01:40:29;98884.72;;;-3.84
22269;BMP280;11303;50.772;19.670;2023-12-07T01:42:31;98892.84;;;-3.82
22269;BMP280;11303;50.772;19.670;2023-12-07T01:44:33;98898.69;;;-3.81
22269;BMP280;11303;50.772;19.670;2023-12-07T01:46:35;98885.25;;;-3.82
22269;BMP280;11303;50.772;19.670;2023-12-07T01:48:37;98888.31;;;-3.80
22269;BMP280;11303;50.772;19.670;2023-12-07T01:50:39;98892.19;;;-3.77
22269;BMP280;11303;50.772;19.670;2023-12-07T01:52:45;98893.97;;;-3.78
22269;BMP280;11303;50.772;19.670;2023-12-07T01:54:49;98885.56;;;-3.78
22269;BMP280;11303;50.772;19.670;2023-12-07T01:56:51;98884.00;;;-3.79
22269;BMP280;11303;50.772;19.670;2023-12-07T01:58:53;98892.19;;;-3.77
22269;BMP280;11303;50.772;19.670;2023-12-07T02:00:55;98893.75;;;-3.76
22269;BMP280;11303;50.772;19.670;2023-12-07T02:02:57;98899.56;;;-3.76
22269;BMP280;11303;50.772;19.670;2023-12-07T02:04:59;98894.03;;;-3.73
22269;BMP280;11303;50.772;19.670;2023-12-07T02:07:01;98902.66;;;-3.74
22269;BMP280;11303;50.772;19.670;2023-12-07T02:09:03;98897.56;;;-3.74
22269;BMP280;11303;50.772;19.670;2023-12-07T02:11:05;98905.97;;;-3.73
22269;BMP280;11303;50.772;19.670;2023-12-07T02:13:07;98900.66;;;-3.71
22269;BMP280;11303;50.772;19.670;2023-12-07T02:15:10;98904.72;;;-3.70
22269;BMP280;11303;50.772;19.670;2023-12-07T02:17:21;98914.66;;;-3.69
22269;BMP280;11303;50.772;19.670;2023-12-07T02:21:56;98902.72;;;-3.68
22269;BMP280;11303;50.772;19.670;2023-12-07T02:24:01;98918.75;;;-3.68
22269;BMP280;11303;50.772;19.670;2023-12-07T02:28:52;98899.97;;;-3.67
22269;BMP280;11303;50.772;19.670;2023-12-07T02:30:55;98905.03;;;-3.67
22269;BMP280;11303;50.772;19.670;2023-12-07T02:32:56;98912.91;;;-3.68
22269;BMP280;11303;50.772;19.670;2023-12-07T02:34:58;98917.75;;;-3.67
22269;BMP280;11303;50.772;19.670;2023-12-07T02:37:01;98913.94;;;-3.64
22269;BMP280;11303;50.772;19.670;2023-12-07T02:39:05;98917.75;;;-3.67
22269;BMP280;11303;50.772;19.670;2023-12-07T02:41:08;98918.50;;;-3.66
22269;BMP280;11303;50.772;19.670;2023-12-07T02:43:10;98923.34;;;-3.65
22269;BMP280;11303;50.772;19.670;2023-12-07T02:45:12;98923.81;;;-3.68
22269;BMP280;11303;50.772;19.670;2023-12-07T02:47:14;98919.50;;;-3.67
22269;BMP280;11303;50.772;19.670;2023-12-07T02:49:16;98926.13;;;-3.66
22269;BMP280;11303;50.772;19.670;2023-12-07T02:51:18;98929.97;;;-3.64
22269;BMP280;11303;50.772;19.670;2023-12-07T02:53:20;98938.38;;;-3.63
22269;BMP280;11303;50.772;19.670;2023-12-07T02:55:22;98941.19;;;-3.60
22269;BMP280;11303;50.772;19.670;2023-12-07T02:57:23;98933.81;;;-3.61
22269;BMP280;11303;50.772;19.670;2023-12-07T02:59:25;98930.50;;;-3.62
22269;BMP280;11303;50.772;19.670;2023-12-07T03:01:27;98934.13;;;-3.58
22269;BMP280;11303;50.772;19.670;2023-12-07T03:03:29;98929.81;;;-3.57
22269;BMP280;11303;50.772;19.670;2023-12-07T03:05:31;98924.72;;;-3.57
22269;BMP280;11303;50.772;19.670;2023-12-07T03:07:33;98928.03;;;-3.57
22269;BMP280;11303;50.772;19.670;2023-12-07T03:09:35;98937.97;;;-3.55
22269;BMP280;11303;50.772;19.670;2023-12-07T03:11:37;98925.00;;;-3.53
22269;BMP280;11303;50.772;19.670;2023-12-07T03:13:39;98921.72;;;-3.54
22269;BMP280;11303;50.772;19.670;2023-12-07T03:15:41;98926.59;;;-3.52
22269;BMP280;11303;50.772;19.670;2023-12-07T03:17:42;98925.59;;;-3.51
22269;BMP280;11303;50.772;19.670;2023-12-07T03:19:45;98932.44;;;-3.52
22269;BMP280;11303;50.772;19.670;2023-12-07T03:21:47;98917.19;;;-3.52
22269;BMP280;11303;50.772;19.670;2023-12-07T03:23:49;98921.28;;;-3.51
22269;BMP280;11303;50.772;19.670;2023-12-07T03:25:51;98929.66;;;-3.50
22269;BMP280;11303;50.772;19.670;2023-12-07T03:27:53;98919.50;;;-3.50
22269;BMP280;11303;50.772;19.670;2023-12-07T03:29:54;98925.59;;;-3.51
22269;BMP280;11303;50.772;19.670;2023-12-07T03:31:56;98928.13;;;-3.51
22269;BMP280;11303;50.772;19.670;2023-12-07T03:33:58;98933.75;;;-3.49
22269;BMP280;11303;50.772;19.670;2023-12-07T03:36:01;98930.44;;;-3.50
22269;BMP280;11303;50.772;19.670;2023-12-07T03:38:03;98931.19;;;-3.49
22269;BMP280;11303;50.772;19.670;2023-12-07T03:40:06;98924.56;;;-3.50
22269;BMP280;11303;50.772;19.670;2023-12-07T03:42:08;98933.50;;;-3.48
22269;BMP280;11303;50.772;19.670;2023-12-07T03:44:30;98937.59;;;-3.47
22269;BMP280;11303;50.772;19.670;2023-12-07T03:46:32;98947.78;;;-3.47
22269;BMP280;11303;50.772;19.670;2023-12-07T03:48:34;98939.59;;;-3.49
22269;BMP280;11303;50.772;19.670;2023-12-07T03:50:36;98939.06;;;-3.51
22269;BMP280;11303;50.772;19.670;2023-12-07T03:52:37;98927.56;;;-3.53
22269;BMP280;11303;50.772;19.670;2023-12-07T03:54:39;98929.13;;;-3.52
22269;BMP280;11303;50.772;19.670;2023-12-07T03:56:41;98939.28;;;-3.52
22269;BMP280;11303;50.772;19.670;2023-12-07T03:58:43;98942.03;;;-3.54
22269;BMP280;11303;50.772;19.670;2023-12-07T04:00:45;98930.09;;;-3.53
22269;BMP280;11303;50.772;19.670;2023-12-07T04:02:47;98937.19;;;-3.56
22269;BMP280;11303;50.772;19.670;2023-12-07T04:04:49;98946.38;;;-3.55
22269;BMP280;11303;50.772;19.670;2023-12-07T04:06:51;98948.34;;;-3.57
22269;BMP280;11303;50.772;19.670;2023-12-07T04:08:53;98952.69;;;-3.57
22269;BMP280;11303;50.772;19.670;2023-12-07T04:10:55;98951.13;;;-3.58
22269;BMP280;11303;50.772;19.670;2023-12-07T04:12:57;98946.84;;;-3.58
22269;BMP280;11303;50.772;19.670;2023-12-07T04:14:59;98954.69;;;-3.59
22269;BMP280;11303;50.772;19.670;2023-12-07T04:17:00;98951.91;;;-3.58
22269;BMP280;11303;50.772;19.670;2023-12-07T04:19:02;98948.81;;;-3.60
22269;BMP280;11303;50.772;19.670;2023-12-07T04:21:04;98949.06;;;-3.61
22269;BMP280;11303;50.772;19.670;2023-12-07T04:23:09;98948.28;;;-3.62
22269;BMP280;11303;50.772;19.670;2023-12-07T04:25:11;98958.47;;;-3.62
22269;BMP280;11303;50.772;19.670;2023-12-07T04:27:13;98954.13;;;-3.61
22269;BMP280;11303;50.772;19.670;2023-12-07T04:29:14;98960.25;;;-3.62
22269;BMP280;11303;50.772;19.670;2023-12-07T04:31:16;98956.38;;;-3.65
22269;BMP280;11303;50.772;19.670;2023-12-07T04:33:18;98957.38;;;-3.66
22269;BMP280;11303;50.772;19.670;2023-12-07T04:35:20;98956.63;;;-3.66
22269;BMP280;11303;50.772;19.670;2023-12-07T04:37:21;98964.00;;;-3.65
22269;BMP280;11303;50.772;19.670;2023-12-07T04:39:23;98951.00;;;-3.68
22269;BMP280;11303;50.772;19.670;2023-12-07T04:41:25;98967.00;;;-3.68
22269;BMP280;11303;50.772;19.670;2023-12-07T04:43:27;98960.16;;;-3.67
22269;BMP280;11303;50.772;19.670;2023-12-07T04:45:28;98960.16;;;-3.67
22269;BMP280;11303;50.772;19.670;2023-12-07T04:47:32;98956.63;;;-3.66
22269;BMP280;11303;50.772;19.670;2023-12-07T04:49:33;98962.47;;;-3.66
22269;BMP280;11303;50.772;19.670;2023-12-07T04:51:35;98967.06;;;-3.63
22269;BMP280;11303;50.772;19.670;2023-12-07T04:53:37;98964.31;;;-3.61
22269;BMP280;11303;50.772;19.670;2023-12-07T04:55:39;98961.00;;;-3.62
22269;BMP280;11303;50.772;19.670;2023-12-07T04:57:41;98969.16;;;-3.60
22269;BMP280;11303;50.772;19.670;2023-12-07T04:59:42;98965.09;;;-3.61
22269;BMP280;11303;50.772;19.670;2023-12-07T05:01:48;98966.84;;;-3.61
22269;BMP280;11303;50.772;19.670;2023-12-07T05:03:50;98965.09;;;-3.61
22269;BMP280;11303;50.772;19.670;2023-12-07T05:05:52;98971.16;;;-3.62
22269;BMP280;11303;50.772;19.670;2023-12-07T05:07:54;98967.63;;;-3.61
22269;BMP280;11303;50.772;19.670;2023-12-07T05:09:55;98970.69;;;-3.59
22269;BMP280;11303;50.772;19.670;2023-12-07T05:11:57;98967.41;;;-3.59
22269;BMP280;11303;50.772;19.670;2023-12-07T05:13:59;98971.47;;;-3.58
22269;BMP280;11303;50.772;19.670;2023-12-07T05:16:01;98970.94;;;-3.60
22269;BMP280;11303;50.772;19.670;2023-12-07T05:18:03;98977.00;;;-3.61
22269;BMP280;11303;50.772;19.670;2023-12-07T05:20:06;98977.78;;;-3.61
22269;BMP280;11303;50.772;19.670;2023-12-07T05:22:08;98978.03;;;-3.62
22269;BMP280;11303;50.772;19.670;2023-12-07T05:24:10;98986.41;;;-3.62
22269;BMP280;11303;50.772;19.670;2023-12-07T05:26:12;98980.00;;;-3.64
22269;BMP280;11303;50.772;19.670;2023-12-07T05:28:13;98988.66;;;-3.65
22269;BMP280;11303;50.772;19.670;2023-12-07T05:30:15;98991.44;;;-3.67
22269;BMP280;11303;50.772;19.670;2023-12-07T05:32:17;98990.63;;;-3.67
22269;BMP280;11303;50.772;19.670;2023-12-07T05:34:19;98995.72;;;-3.67
22269;BMP280;11303;50.772;19.670;2023-12-07T05:36:21;98990.88;;;-3.69
22269;BMP280;11303;50.772;19.670;2023-12-07T05:38:23;99000.28;;;-3.69
22269;BMP280;11303;50.772;19.670;2023-12-07T05:40:25;99003.06;;;-3.71
22269;BMP280;11303;50.772;19.670;2023-12-07T05:42:27;99002.06;;;-3.70
22269;BMP280;11303;50.772;19.670;2023-12-07T05:44:28;99001.81;;;-3.68
22269;BMP280;11303;50.772;19.670;2023-12-07T05:46:31;99006.69;;;-3.67
22269;BMP280;11303;50.772;19.670;2023-12-07T05:48:34;98999.81;;;-3.66
22269;BMP280;11303;50.772;19.670;2023-12-07T05:50:36;99000.34;;;-3.64
22269;BMP280;11303;50.772;19.670;2023-12-07T05:52:41;99003.44;;;-3.62
22269;BMP280;11303;50.772;19.670;2023-12-07T05:54:43;99005.97;;;-3.62
22269;BMP280;11303;50.772;19.670;2023-12-07T05:56:48;99003.97;;;-3.60
22269;BMP280;11303;50.772;19.670;2023-12-07T05:58:49;99002.97;;;-3.59
22269;BMP280;11303;50.772;19.670;2023-12-07T06:00:51;99012.91;;;-3.58
22269;BMP280;11303;50.772;19.670;2023-12-07T06:02:53;99011.88;;;-3.57
22269;BMP280;11303;50.772;19.670;2023-12-07T06:04:55;99015.75;;;-3.54
22269;BMP280;11303;50.772;19.670;2023-12-07T06:06:57;99010.47;;;-3.52
22269;BMP280;11303;50.772;19.670;2023-12-07T06:08:59;99019.63;;;-3.51
22269;BMP280;11303;50.772;19.670;2023-12-07T06:11:01;99021.94;;;-3.50
22269;BMP280;11303;50.772;19.670;2023-12-07T06:13:03;99018.16;;;-3.47
22269;BMP280;11303;50.772;19.670;2023-12-07T06:15:05;99028.09;;;-3.46
22269;BMP280;11303;50.772;19.670;2023-12-07T06:17:08;99026.09;;;-3.44
22269;BMP280;11303;50.772;19.670;2023-12-07T06:19:10;99031.94;;;-3.43
22269;BMP280;11303;50.772;19.670;2023-12-07T06:21:13;99031.47;;;-3.40
22269;BMP280;11303;50.772;19.670;2023-12-07T06:23:15;99037.66;;;-3.36
22269;BMP280;11303;50.772;19.670;2023-12-07T06:25:17;99038.41;;;-3.35
22269;BMP280;11303;50.772;19.670;2023-12-07T06:27:19;99040.72;;;-3.34
22269;BMP280;11303;50.772;19.670;2023-12-07T06:29:20;99045.34;;;-3.31
22269;BMP280;11303;50.772;19.670;2023-12-07T06:31:22;99049.19;;;-3.28
22269;BMP280;11303;50.772;19.670;2023-12-07T06:33:24;99047.72;;;-3.24
22269;BMP280;11303;50.772;19.670;2023-12-07T06:35:26;99049.81;;;-3.21
22269;BMP280;11303;50.772;19.670;2023-12-07T06:37:28;99057.22;;;-3.20
22269;BMP280;11303;50.772;19.670;2023-12-07T06:39:29;99053.44;;;-3.17
22269;BMP280;11303;50.772;19.670;2023-12-07T06:41:31;99046.09;;;-3.13
22269;BMP280;11303;50.772;19.670;2023-12-07T06:43:33;99057.34;;;-3.09
22269;BMP280;11303;50.772;19.670;2023-12-07T06:45:35;99050.25;;;-3.07
22269;BMP280;11303;50.772;19.670;2023-12-07T06:47:37;99051.56;;;-3.05
22269;BMP280;11303;50.772;19.670;2023-12-07T06:49:40;99048.56;;;-3.02
22269;BMP280;11303;50.772;19.670;2023-12-07T06:51:53;99052.97;;;-2.97
22269;BMP280;11303;50.772;19.670;2023-12-07T06:53:54;99055.03;;;-2.94
22269;BMP280;11303;50.772;19.670;2023-12-07T06:55:56;99056.13;;;-2.90
22269;BMP280;11303;50.772;19.670;2023-12-07T06:57:58;99053.88;;;-2.86
22269;BMP280;11303;50.772;19.670;2023-12-07T07:00:00;99070.22;;;-2.82
22269;BMP280;11303;50.772;19.670;2023-12-07T07:02:03;99057.78;;;-2.78
22269;BMP280;11303;50.772;19.670;2023-12-07T07:04:05;99088.59;;;-2.75
22269;BMP280;11303;50.772;19.670;2023-12-07T07:06:07;99078.50;;;-2.70
22269;BMP280;11303;50.772;19.670;2023-12-07T07:08:09;99076.03;;;-2.64
22269;BMP280;11303;50.772;19.670;2023-12-07T07:10:11;99081.94;;;-2.59
22269;BMP280;11303;50.772;19.670;2023-12-07T07:12:14;99080.00;;;-2.52
22269;BMP280;11303;50.772;19.670;2023-12-07T07:26:03;99089.69;;;-2.04
22269;BMP280;11303;50.772;19.670;2023-12-07T07:28:04;99092.25;;;-2.04
22269;BMP280;11303;50.772;19.670;2023-12-07T07:30:07;99084.84;;;-2.06
22269;BMP280;11303;50.772;19.670;2023-12-07T07:32:09;99089.97;;;-2.01
22269;BMP280;11303;50.772;19.670;2023-12-07T07:34:12;99082.84;;;-1.99
22269;BMP280;11303;50.772;19.670;2023-12-07T07:36:14;99085.16;;;-1.97
22269;BMP280;11303;50.772;19.670;2023-12-07T07:38:19;99087.78;;;-1.92
22269;BMP280;11303;50.772;19.670;2023-12-07T07:40:20;99086.28;;;-1.88
22269;BMP280;11303;50.772;19.670;2023-12-07T07:42:22;99094.00;;;-1.83
22269;BMP280;11303;50.772;19.670;2023-12-07T07:44:24;99094.53;;;-1.81
22269;BMP280;11303;50.772;19.670;2023-12-07T07:46:26;99088.94;;;-1.77
22269;BMP280;11303;50.772;19.670;2023-12-07T07:48:27;99095.13;;;-1.68
22269;BMP280;11303;50.772;19.670;2023-12-07T07:50:29;99102.06;;;-1.64
22269;BMP280;11303;50.772;19.670;2023-12-07T07:52:34;99094.19;;;-1.57
22269;BMP280;11303;50.772;19.670;2023-12-07T07:54:37;99092.69;;;-1.58
22269;BMP280;11303;50.772;19.670;2023-12-07T07:56:39;99092.94;;;-1.54
22269;BMP280;11303;50.772;19.670;2023-12-07T07:58:41;99097.03;;;-1.53
22269;BMP280;11303;50.772;19.670;2023-12-07T08:00:42;99096.31;;;-1.49
22269;BMP280;11303;50.772;19.670;2023-12-07T08:02:46;99102.44;;;-1.45
22269;BMP280;11303;50.772;19.670;2023-12-07T08:04:47;99104.34;;;-1.35
22269;BMP280;11303;50.772;19.670;2023-12-07T08:06:49;99100.53;;;-1.32
22269;BMP280;11303;50.772;19.670;2023-12-07T08:08:51;99100.84;;;-1.23
22269;BMP280;11303;50.772;19.670;2023-12-07T08:10:53;99104.19;;;-1.18
22269;BMP280;11303;50.772;19.670;2023-12-07T08:12:57;99106.53;;;-1.11
22269;BMP280;11303;50.772;19.670;2023-12-07T08:14:59;99106.34;;;-0.99
22269;BMP280;11303;50.772;19.670;2023-12-07T08:17:01;99101.28;;;-0.94
22269;BMP280;11303;50.772;19.670;2023-12-07T08:19:03;99100.00;;;-0.92
22269;BMP280;11303;50.772;19.670;2023-12-07T08:21:04;99104.66;;;-0.83
22269;BMP280;11303;50.772;19.670;2023-12-07T08:23:10;99105.19;;;-0.76
22269;BMP280;11303;50.772;19.670;2023-12-07T08:25:12;99110.84;;;-0.69
22269;BMP280;11303;50.772;19.670;2023-12-07T08:27:14;99120.81;;;-0.67
22269;BMP280;11303;50.772;19.670;2023-12-07T08:29:15;99127.47;;;-0.61
22269;BMP280;11303;50.772;19.670;2023-12-07T08:31:17;99126.72;;;-0.62
22269;BMP280;11303;50.772;19.670;2023-12-07T08:33:19;99130.03;;;-0.56
22269;BMP280;11303;50.772;19.670;2023-12-07T08:35:21;99121.13;;;-0.48
22269;BMP280;11303;50.772;19.670;2023-12-07T08:37:24;99124.47;;;-0.48
22269;BMP280;11303;50.772;19.670;2023-12-07T08:39:26;99129.34;;;-0.41
22269;BMP280;11303;50.772;19.670;2023-12-07T08:41:28;99139.06;;;-0.33
22269;BMP280;11303;50.772;19.670;2023-12-07T08:43:30;99136.09;;;-0.25
22269;BMP280;11303;50.772;19.670;2023-12-07T08:45:32;99132.00;;;-0.26
22269;BMP280;11303;50.772;19.670;2023-12-07T08:47:34;99142.97;;;-0.25
22269;BMP280;11303;50.772;19.670;2023-12-07T08:49:36;99142.72;;;-0.24
22269;BMP280;11303;50.772;19.670;2023-12-07T08:51:38;99139.66;;;-0.21
22269;BMP280;11303;50.772;19.670;2023-12-07T08:53:46;99146.81;;;-0.28
22269;BMP280;11303;50.772;19.670;2023-12-07T08:55:53;99152.94;;;-0.24
22269;BMP280;11303;50.772;19.670;2023-12-07T08:57:55;99156.28;;;-0.18
22269;BMP280;11303;50.772;19.670;2023-12-07T08:59:58;99150.69;;;-0.10
22269;BMP280;11303;50.772;19.670;2023-12-07T09:02:01;99159.91;;;0.02
22269;BMP280;11303;50.772;19.670;2023-12-07T09:04:03;99160.19;;;0.05
22269;BMP280;11303;50.772;19.670;2023-12-07T09:06:05;99161.50;;;0.13
22269;BMP280;11303;50.772;19.670;2023-12-07T09:08:08;99172.72;;;0.17
22269;BMP280;11303;50.772;19.670;2023-12-07T09:10:12;99157.38;;;0.17
22269;BMP280;11303;50.772;19.670;2023-12-07T09:12:14;99167.63;;;0.17
22269;BMP280;11303;50.772;19.670;2023-12-07T09:14:22;99169.16;;;0.18
22269;BMP280;11303;50.772;19.670;2023-12-07T09:16:24;99174.28;;;0.23
22269;BMP280;11303;50.772;19.670;2023-12-07T09:18:27;99167.13;;;0.30
22269;BMP280;11303;50.772;19.670;2023-12-07T09:20:29;99170.19;;;0.27
22269;BMP280;11303;50.772;19.670;2023-12-07T09:22:31;99169.44;;;0.27
22269;BMP280;11303;50.772;19.670;2023-12-07T09:24:38;99176.06;;;0.23
22269;BMP280;11303;50.772;19.670;2023-12-07T09:26:41;99175.06;;;0.29
22269;BMP280;11303;50.772;19.670;2023-12-07T09:28:43;99171.47;;;0.35
22269;BMP280;11303;50.772;19.670;2023-12-07T09:30:45;99175.31;;;0.22
22269;BMP280;11303;50.772;19.670;2023-12-07T09:32:52;99180.44;;;0.22
22269;BMP280;11303;50.772;19.670;2023-12-07T09:34:54;99172.75;;;0.38
22269;BMP280;11303;50.772;19.670;2023-12-07T09:37:09;99171.47;;;0.45
22269;BMP280;11303;50.772;19.670;2023-12-07T09:39:11;99173.78;;;0.52
22269;BMP280;11303;50.772;19.670;2023-12-07T09:41:13;99171.75;;;0.59
22269;BMP280;11303;50.772;19.670;2023-12-07T09:43:15;99175.84;;;0.55
22269;BMP280;11303;50.772;19.670;2023-12-07T09:45:19;99171.47;;;0.56
22269;BMP280;11303;50.772;19.670;2023-12-07T09:47:22;99174.81;;;0.46
22269;BMP280;11303;50.772;19.670;2023-12-07T09:49:34;99176.84;;;0.44
22269;BMP280;11303;50.772;19.670;2023-12-07T09:51:36;99169.41;;;0.37
22269;BMP280;11303;50.772;19.670;2023-12-07T09:53:39;99171.47;;;0.35
22269;BMP280;11303;50.772;19.670;2023-12-07T09:55:41;99179.38;;;0.33
22269;BMP280;11303;50.772;19.670;2023-12-07T09:57:43;99171.72;;;0.39
22269;BMP280;11303;50.772;19.670;2023-12-07T09:59:46;99175.81;;;0.45
22269;BMP280;11303;50.772;19.670;2023-12-07T10:01:47;99165.84;;;0.53
22269;BMP280;11303;50.772;19.670;2023-12-07T10:03:49;99166.38;;;0.66
22269;BMP280;11303;50.772;19.670;2023-12-07T10:05:56;99179.91;;;0.66
22269;BMP280;11303;50.772;19.670;2023-12-07T10:07:58;99171.75;;;0.75
22269;BMP280;11303;50.772;19.670;2023-12-07T10:10:00;99175.09;;;0.85
22269;BMP280;11303;50.772;19.670;2023-12-07T10:12:06;99172.78;;;0.84
22269;BMP280;11303;50.772;19.670;2023-12-07T10:14:08;99169.69;;;0.87
22269;BMP280;11303;50.772;19.670;2023-12-07T10:16:15;99166.13;;;0.93
22269;BMP280;11303;50.772;19.670;2023-12-07T10:18:23;99167.41;;;0.85
22269;BMP280;11303;50.772;19.670;2023-12-07T10:20:26;99167.63;;;0.79
22269;BMP280;11303;50.772;19.670;2023-12-07T10:22:28;99167.91;;;0.77
22269;BMP280;11303;50.772;19.670;2023-12-07T10:24:30;99164.06;;;0.75
22269;BMP280;11303;50.772;19.670;2023-12-07T10:26:32;99164.56;;;0.77
22269;BMP280;11303;50.772;19.670;2023-12-07T10:28:39;99163.03;;;0.76
22269;BMP280;11303;50.772;19.670;2023-12-07T10:30:41;99164.31;;;0.68
22269;BMP280;11303;50.772;19.670;2023-12-07T10:32:45;99171.22;;;0.72
22269;BMP280;11303;50.772;19.670;2023-12-07T10:34:47;99169.94;;;0.75
22269;BMP280;11303;50.772;19.670;2023-12-07T10:36:49;99159.22;;;0.73
22269;BMP280;11303;50.772;19.670;2023-12-07T10:38:54;99164.56;;;0.61
22269;BMP280;11303;50.772;19.670;2023-12-07T10:41:06;99168.94;;;0.66
22269;BMP280;11303;50.772;19.670;2023-12-07T10:43:08;99164.06;;;0.69
22269;BMP280;11303;50.772;19.670;2023-12-07T10:45:11;99163.81;;;0.66
22269;BMP280;11303;50.772;19.670;2023-12-07T10:47:16;99168.16;;;0.60
22269;BMP280;11303;50.772;19.670;2023-12-07T10:49:21;99165.84;;;0.53
22269;BMP280;11303;50.772;19.670;2023-12-07T10:51:42;99166.13;;;0.47
22269;BMP280;11303;50.772;19.670;2023-12-07T10:53:48;99169.44;;;0.42
22269;BMP280;11303;50.772;19.670;2023-12-07T10:55:56;99165.06;;;0.43
22269;BMP280;11303;50.772;19.670;2023-12-07T10:57:59;99170.69;;;0.40
22269;BMP280;11303;50.772;19.670;2023-12-07T11:00:02;99167.63;;;0.38
22269;BMP280;11303;50.772;19.670;2023-12-07T11:02:06;99166.09;;;0.36
22269;BMP280;11303;50.772;19.670;2023-12-07T11:04:13;99167.13;;;0.25
22269;BMP280;11303;50.772;19.670;2023-12-07T11:06:15;99170.44;;;0.21
22269;BMP280;11303;50.772;19.670;2023-12-07T11:08:24;99158.44;;;0.26
22269;BMP280;11303;50.772;19.670;2023-12-07T11:12:36;99165.31;;;0.41
22269;BMP280;11303;50.772;19.670;2023-12-07T11:14:40;99164.81;;;0.44
22269;BMP280;11303;50.772;19.670;2023-12-07T11:16:43;99160.22;;;0.26
22269;BMP280;11303;50.772;19.670;2023-12-07T11:18:47;99165.84;;;0.17
22269;BMP280;11303;50.772;19.670;2023-12-07T11:20:49;99152.03;;;0.13
22269;BMP280;11303;50.772;19.670;2023-12-07T11:22:51;99166.84;;;0.11
22269;BMP280;11303;50.772;19.670;2023-12-07T11:24:55;99168.13;;;0.09
22269;BMP280;11303;50.772;19.670;2023-12-07T11:26:59;99173.00;;;0.21
22269;BMP280;11303;50.772;19.670;2023-12-07T11:29:00;99162.78;;;0.36
22269;BMP280;11303;50.772;19.670;2023-12-07T11:31:02;99161.50;;;0.49
22269;BMP280;11303;50.772;19.670;2023-12-07T11:33:05;99172.50;;;0.44
22269;BMP280;11303;50.772;19.670;2023-12-07T11:35:11;99161.50;;;0.54
22269;BMP280;11303;50.772;19.670;2023-12-07T11:37:15;99166.88;;;0.63
22269;BMP280;11303;50.772;19.670;2023-12-07T11:39:20;99155.88;;;0.67
22269;BMP280;11303;50.772;19.670;2023-12-07T11:41:34;99158.44;;;0.72
22269;BMP280;11303;50.772;19.670;2023-12-07T11:43:37;99161.75;;;0.68
22269;BMP280;11303;50.772;19.670;2023-12-07T11:45:48;99156.63;;;0.68
22269;BMP280;11303;50.772;19.670;2023-12-07T11:48:12;99158.94;;;0.80
22269;BMP280;11303;50.772;19.670;2023-12-07T11:50:18;99157.91;;;0.86
22269;BMP280;11303;50.772;19.670;2023-12-07T11:52:21;99150.50;;;0.84
22269;BMP280;11303;50.772;19.670;2023-12-07T11:54:23;99162.25;;;0.80
22269;BMP280;11303;50.772;19.670;2023-12-07T11:56:25;99170.72;;;0.81
22269;BMP280;11303;50.772;19.670;2023-12-07T11:58:31;99155.88;;;0.83